createdAt,value
2022-12-23T00:00:45.350Z,8.48
2022-12-23T00:03:12.907Z,9.13
2022-12-23T00:05:41.114Z,9.00
2022-12-23T00:08:08.688Z,10.05
2022-12-23T00:10:40.322Z,8.95
2022-12-23T00:13:27.450Z,9.70
2022-12-23T00:16:03.692Z,8.75
2022-12-23T00:18:31.337Z,9.40
2022-12-23T00:21:08.299Z,9.30
2022-12-23T00:23:39.400Z,8.82
2022-12-23T00:26:07.249Z,8.43
2022-12-23T00:28:34.616Z,9.18
2022-12-23T00:31:04.863Z,8.77
2022-12-23T00:33:37.500Z,8.68
2022-12-23T00:36:13.204Z,8.18
2022-12-23T00:38:59.325Z,9.00
2022-12-23T00:41:45.435Z,8.55
2022-12-23T00:44:13.072Z,8.55
2022-12-23T00:46:40.360Z,9.75
2022-12-23T00:49:25.991Z,9.25
2022-12-23T00:51:53.293Z,8.60
2022-12-23T00:54:20.537Z,8.88
2022-12-23T00:56:47.880Z,7.70
2022-12-23T00:59:15.179Z,8.65
2022-12-23T01:02:01.330Z,8.68
2022-12-23T01:04:47.104Z,8.65
2022-12-23T01:07:14.424Z,8.80
2022-12-23T01:09:41.792Z,8.20
2022-12-23T01:12:09.074Z,7.97
2022-12-23T01:14:36.544Z,9.35
2022-12-23T01:17:04.567Z,9.10
2022-12-23T01:19:32.162Z,8.07
2022-12-23T01:21:59.444Z,8.63
2022-12-23T01:24:31.108Z,9.07
2022-12-23T01:26:58.841Z,8.27
2022-12-23T01:29:26.410Z,9.25
2022-12-23T01:31:53.777Z,8.88
2022-12-23T01:34:21.152Z,8.73
2022-12-23T01:36:48.518Z,8.63
2022-12-23T01:39:15.908Z,8.85
2022-12-23T01:42:01.972Z,9.00
2022-12-23T01:44:53.863Z,8.55
2022-12-23T01:47:27.764Z,8.65
2022-12-23T01:50:08.539Z,9.23
2022-12-23T01:52:51.647Z,8.95
2022-12-23T01:55:22.967Z,8.75
2022-12-23T01:57:51.339Z,8.05
2022-12-23T02:00:37.058Z,8.68
2022-12-23T02:03:23.023Z,8.55
2022-12-23T02:05:51.747Z,8.63
2022-12-23T02:08:38.127Z,9.18
2022-12-23T02:11:34.460Z,8.80
2022-12-23T02:14:41.481Z,8.68
2022-12-23T02:17:28.046Z,8.98
2022-12-23T02:20:01.123Z,8.85
2022-12-23T02:25:33.274Z,8.90
2022-12-23T02:28:15.503Z,8.40
2022-12-23T02:31:23.999Z,8.82
2022-12-23T02:33:54.026Z,9.07
2022-12-23T02:36:42.979Z,8.73
2022-12-23T02:39:33.129Z,8.85
2022-12-23T02:42:22.624Z,8.48
2022-12-23T02:45:18.949Z,8.20
2022-12-23T02:47:59.725Z,8.57
2022-12-23T02:50:32.268Z,8.60
2022-12-23T02:53:04.955Z,9.43
2022-12-23T02:55:36.656Z,8.60
2022-12-23T02:58:11.125Z,8.23
2022-12-23T03:00:40.810Z,9.10
2022-12-23T03:03:08.344Z,8.48
2022-12-23T03:05:42.980Z,7.78
2022-12-23T03:08:17.092Z,8.18
2022-12-23T03:11:06.810Z,9.32
2022-12-23T03:14:08.061Z,7.53
2022-12-23T03:16:57.990Z,8.25
2022-12-23T03:19:33.712Z,8.63
2022-12-23T03:22:09.972Z,8.55
2022-12-23T03:24:40.857Z,8.20
2022-12-23T03:27:22.650Z,8.50
2022-12-23T03:30:16.204Z,8.98
2022-12-23T03:32:59.460Z,7.95
2022-12-23T03:37:59.168Z,7.30
2022-12-23T03:40:38.280Z,7.70
2022-12-23T03:43:12.395Z,8.55
2022-12-23T03:45:44.863Z,8.40
2022-12-23T03:48:19.979Z,8.77
2022-12-23T03:50:51.709Z,8.23
2022-12-23T03:53:24.583Z,8.77
2022-12-23T03:55:56.700Z,8.05
2022-12-23T03:58:29.529Z,7.57
2022-12-23T04:01:10.123Z,8.20
2022-12-23T04:03:53.568Z,8.40
2022-12-23T04:06:22.004Z,8.23
2022-12-23T04:08:50.365Z,7.97
2022-12-23T04:11:17.578Z,7.60
2022-12-23T04:13:48.102Z,8.40
2022-12-23T04:16:16.694Z,8.25
2022-12-23T04:18:44.077Z,7.45
2022-12-23T04:21:11.304Z,8.80
2022-12-23T04:23:40.272Z,8.13
2022-12-23T04:26:07.476Z,7.63
2022-12-23T04:28:34.729Z,7.32
2022-12-23T04:31:02.027Z,7.35
2022-12-23T04:33:29.327Z,7.47
2022-12-23T04:35:58.958Z,7.63
2022-12-23T04:38:26.275Z,8.18
2022-12-23T04:40:53.551Z,7.40
2022-12-23T04:43:20.778Z,7.80
2022-12-23T04:45:51.892Z,8.07
2022-12-23T04:48:19.279Z,8.32
2022-12-23T04:50:46.632Z,7.97
2022-12-23T04:53:13.944Z,8.35
2022-12-23T04:55:41.259Z,7.53
2022-12-23T04:58:08.586Z,7.00
2022-12-23T05:00:39.795Z,7.07
2022-12-23T05:03:07.477Z,7.00
2022-12-23T05:05:34.837Z,7.40
2022-12-23T05:08:05.986Z,7.60
2022-12-23T05:10:33.321Z,7.57
2022-12-23T05:13:00.600Z,6.72
2022-12-23T05:15:27.900Z,7.32
2022-12-23T05:17:55.145Z,7.30
2022-12-23T05:20:22.383Z,7.28
2022-12-23T05:22:49.569Z,6.95
2022-12-23T05:25:17.001Z,7.20
2022-12-23T05:27:44.282Z,7.28
2022-12-23T05:30:11.974Z,7.03
2022-12-23T05:32:39.403Z,6.97
2022-12-23T05:35:07.063Z,7.07
2022-12-23T05:37:34.337Z,7.07
2022-12-23T05:40:01.692Z,6.03
2022-12-23T05:42:29.056Z,7.65
2022-12-23T05:44:56.276Z,7.28
2022-12-23T05:47:23.572Z,7.15
2022-12-23T05:49:50.879Z,6.35
2022-12-23T05:52:18.117Z,6.82
2022-12-23T05:54:45.305Z,7.72
2022-12-23T05:57:12.959Z,7.35
2022-12-23T05:59:40.229Z,7.68
2022-12-23T06:02:07.649Z,7.45
2022-12-23T06:04:35.105Z,8.48
2022-12-23T06:07:02.492Z,7.25
2022-12-23T06:09:29.736Z,8.23
2022-12-23T06:11:56.938Z,7.55
2022-12-23T06:14:28.839Z,7.50
2022-12-23T06:16:56.902Z,8.02
2022-12-23T06:19:24.478Z,8.27
2022-12-23T06:21:51.729Z,8.20
2022-12-23T06:24:18.980Z,7.97
2022-12-23T06:26:46.309Z,8.25
2022-12-23T06:29:13.679Z,7.78
2022-12-23T06:31:40.873Z,8.50
2022-12-23T06:34:08.113Z,8.38
2022-12-23T06:36:35.404Z,8.20
2022-12-23T06:39:02.680Z,8.38
2022-12-23T06:41:29.961Z,7.50
2022-12-23T06:43:57.274Z,7.97
2022-12-23T06:46:24.559Z,8.48
2022-12-23T06:48:51.904Z,7.82
2022-12-23T06:51:19.524Z,8.35
2022-12-23T06:53:46.775Z,8.63
2022-12-23T06:56:14.000Z,8.73
2022-12-23T06:58:41.301Z,8.15
2022-12-23T07:01:10.103Z,8.45
2022-12-23T07:03:37.671Z,8.25
2022-12-23T07:06:05.120Z,8.05
2022-12-23T07:08:32.350Z,7.72
2022-12-23T07:11:00.823Z,6.97
2022-12-23T07:13:28.283Z,8.23
2022-12-23T07:15:56.026Z,8.13
2022-12-23T07:18:24.144Z,7.93
2022-12-23T07:20:52.290Z,7.65
2022-12-23T07:23:19.518Z,8.23
2022-12-23T07:25:46.839Z,7.78
2022-12-23T07:28:14.082Z,8.00
2022-12-23T07:30:41.362Z,7.53
2022-12-23T07:33:08.731Z,7.95
2022-12-23T07:35:36.112Z,8.70
2022-12-23T07:38:03.960Z,8.20
2022-12-23T07:40:31.201Z,7.82
2022-12-23T07:42:59.693Z,8.07
2022-12-23T07:45:28.497Z,8.15
2022-12-23T07:47:57.510Z,7.13
2022-12-23T07:50:26.406Z,8.00
2022-12-23T07:52:54.654Z,6.72
2022-12-23T07:55:22.630Z,7.80
2022-12-23T07:57:51.388Z,7.28
2022-12-23T08:00:20.380Z,7.20
2022-12-23T08:02:48.322Z,7.03
2022-12-23T08:05:16.517Z,7.82
2022-12-23T08:07:45.326Z,7.00
2022-12-23T08:10:13.149Z,6.90
2022-12-23T08:12:40.405Z,6.97
2022-12-23T08:15:08.387Z,6.97
2022-12-23T08:17:35.579Z,6.72
2022-12-23T08:20:03.014Z,7.05
2022-12-23T08:22:31.867Z,7.25
2022-12-23T08:24:59.825Z,7.43
2022-12-23T08:27:27.285Z,6.80
2022-12-23T08:29:55.926Z,6.57
2022-12-23T08:32:27.091Z,6.55
2022-12-23T08:34:56.987Z,7.22
2022-12-23T08:37:25.206Z,7.13
2022-12-23T08:39:52.439Z,6.63
2022-12-23T08:42:20.223Z,7.25
2022-12-23T08:44:47.539Z,6.25
2022-12-23T08:47:14.819Z,6.00
2022-12-23T08:49:42.229Z,6.15
2022-12-23T08:52:09.593Z,6.93
2022-12-23T08:54:36.814Z,6.43
2022-12-23T08:57:04.023Z,6.38
2022-12-23T08:59:31.267Z,7.15
2022-12-23T09:01:59.808Z,7.10
2022-12-23T09:04:27.285Z,6.75
2022-12-23T09:06:54.639Z,5.90
2022-12-23T09:09:21.904Z,6.18
2022-12-23T09:11:49.165Z,6.78
2022-12-23T09:14:16.397Z,6.72
2022-12-23T09:16:43.768Z,6.70
2022-12-23T09:19:11.111Z,6.40
2022-12-23T09:21:38.418Z,6.78
2022-12-23T09:24:06.219Z,6.43
2022-12-23T09:26:33.619Z,5.90
2022-12-23T09:29:00.984Z,9.55
2022-12-23T09:31:35.886Z,10.32
2022-12-23T09:34:04.981Z,11.18
2022-12-23T09:36:32.279Z,11.25
2022-12-23T09:38:59.596Z,10.27
2022-12-23T09:41:51.008Z,10.95
2022-12-23T09:44:48.846Z,13.02
2022-12-23T09:47:20.911Z,11.38
2022-12-23T09:50:02.384Z,12.93
2022-12-23T09:52:52.926Z,13.70
2022-12-23T09:55:23.670Z,13.57
2022-12-23T09:58:06.567Z,13.70
2022-12-23T10:00:47.952Z,12.82
2022-12-23T10:03:26.038Z,12.70
2022-12-23T10:05:56.483Z,12.30
2022-12-23T10:08:54.410Z,14.95
2022-12-23T10:11:46.997Z,14.15
2022-12-23T10:14:31.327Z,14.68
2022-12-23T10:17:08.866Z,13.85
2022-12-23T10:19:41.881Z,14.38
2022-12-23T10:22:37.255Z,15.48
2022-12-23T10:25:22.846Z,15.48
2022-12-23T10:27:50.072Z,15.40
2022-12-23T10:30:53.958Z,15.02
2022-12-23T10:33:30.597Z,13.43
2022-12-23T10:36:20.133Z,16.58
2022-12-23T10:38:47.561Z,14.30
2022-12-23T10:41:38.228Z,13.40
2022-12-23T10:44:26.486Z,13.40
2022-12-23T10:47:11.768Z,16.73
2022-12-23T10:49:58.247Z,18.77
2022-12-23T10:52:29.751Z,17.17
2022-12-23T10:54:57.014Z,18.65
2022-12-23T10:57:26.056Z,17.40
2022-12-23T10:59:53.382Z,16.00
2022-12-23T11:02:46.014Z,14.75
2022-12-23T11:05:22.376Z,11.83
2022-12-23T11:07:49.677Z,11.85
2022-12-23T11:10:20.889Z,10.95
2022-12-23T11:12:53.128Z,11.10
2022-12-23T11:15:31.258Z,11.77
2022-12-23T11:18:18.669Z,10.20
2022-12-23T11:21:03.885Z,9.70
2022-12-23T11:23:36.807Z,8.63
2022-12-23T11:28:48.265Z,8.27
2022-12-23T11:31:17.089Z,8.57
2022-12-23T11:34:05.201Z,7.70
2022-12-23T11:36:33.785Z,8.32
2022-12-23T11:39:14.471Z,8.38
2022-12-23T11:41:48.854Z,8.20
2022-12-23T11:44:30.915Z,7.80
2022-12-23T11:47:17.168Z,7.00
2022-12-23T11:49:54.010Z,8.05
2022-12-23T11:52:23.578Z,8.02
2022-12-23T11:54:55.603Z,7.10
2022-12-23T11:57:27.432Z,6.63
2022-12-23T12:00:01.745Z,7.15
2022-12-23T12:02:43.261Z,6.90
2022-12-23T12:05:22.836Z,6.65
2022-12-23T12:07:52.091Z,7.43
2022-12-23T12:10:28.114Z,6.45
2022-12-23T12:13:03.518Z,7.65
2022-12-23T12:15:49.222Z,6.65
2022-12-23T12:18:19.771Z,6.82
2022-12-23T12:20:53.189Z,6.25
2022-12-23T12:23:26.316Z,6.32
2022-12-23T12:28:29.047Z,5.72
2022-12-23T12:31:11.597Z,6.47
2022-12-23T12:34:03.604Z,6.05
2022-12-23T12:36:49.881Z,6.45
2022-12-23T12:39:28.110Z,6.18
2022-12-23T12:42:05.250Z,6.07
2022-12-23T12:44:57.237Z,6.32
2022-12-23T12:50:27.911Z,6.38
2022-12-23T12:52:59.824Z,6.53
2022-12-23T12:55:32.543Z,5.72
2022-12-23T12:58:02.813Z,6.35
2022-12-23T13:01:08.296Z,5.95
2022-12-23T13:04:00.161Z,5.95
2022-12-23T13:06:41.255Z,5.82
2022-12-23T13:09:50.611Z,5.95
2022-12-23T13:12:29.369Z,5.75
2022-12-23T13:15:04.964Z,5.50
2022-12-23T13:17:38.644Z,6.70
2022-12-23T13:20:46.117Z,5.65
2022-12-23T13:23:42.850Z,5.05
2022-12-23T13:26:24.780Z,6.25
2022-12-23T13:29:18.220Z,5.47
2022-12-23T13:31:52.242Z,6.05
2022-12-23T13:34:26.033Z,5.45
2022-12-23T13:37:18.097Z,5.35
2022-12-23T13:39:54.118Z,5.95
2022-12-23T13:42:40.581Z,5.28
2022-12-23T13:45:18.536Z,5.78
2022-12-23T13:48:05.079Z,5.32
2022-12-23T13:50:50.303Z,5.25
2022-12-23T13:53:22.347Z,4.88
2022-12-23T13:55:57.770Z,5.28
2022-12-23T13:58:27.483Z,5.20
2022-12-23T14:01:18.791Z,5.43
2022-12-23T14:03:49.698Z,5.05
2022-12-23T14:06:24.468Z,5.57
2022-12-23T14:08:53.364Z,5.65
2022-12-23T14:11:29.956Z,5.53
2022-12-23T14:14:06.978Z,5.53
2022-12-23T14:16:40.198Z,4.95
2022-12-23T14:22:16.218Z,5.07
2022-12-23T14:25:01.558Z,4.95
2022-12-23T14:28:10.535Z,5.43
2022-12-23T14:30:41.313Z,5.32
2022-12-23T14:33:27.740Z,5.50
2022-12-23T14:35:58.864Z,4.75
2022-12-23T14:38:32.080Z,4.68
2022-12-23T14:43:46.097Z,4.93
2022-12-23T14:46:35.310Z,5.25
2022-12-23T14:49:37.528Z,5.10
2022-12-23T14:51:52.772Z,5.15
2022-12-23T14:54:38.030Z,5.22
2022-12-23T14:57:16.804Z,5.30
2022-12-23T15:00:00.476Z,5.38
2022-12-23T15:02:37.103Z,4.78
2022-12-23T15:05:05.151Z,5.40
2022-12-23T15:07:38.639Z,5.10
2022-12-23T15:10:15.430Z,5.43
2022-12-23T15:12:47.642Z,4.90
2022-12-23T15:15:25.102Z,5.77
2022-12-23T15:18:13.049Z,5.50
2022-12-23T15:20:41.047Z,5.38
2022-12-23T15:23:11.413Z,5.68
2022-12-23T15:25:42.430Z,5.53
2022-12-23T15:28:18.900Z,5.65
2022-12-23T15:30:52.935Z,6.25
2022-12-23T15:36:12.572Z,5.70
2022-12-23T15:38:40.053Z,5.78
2022-12-23T15:41:16.150Z,5.30
2022-12-23T15:43:44.483Z,5.82
2022-12-23T15:46:23.405Z,5.40
2022-12-23T15:48:54.846Z,5.80
2022-12-23T15:54:22.924Z,5.15
2022-12-23T15:56:53.254Z,6.35
2022-12-23T15:59:24.973Z,5.75
2022-12-23T16:01:53.135Z,6.13
2022-12-23T16:04:28.684Z,7.10
2022-12-23T16:06:56.521Z,6.80
2022-12-23T16:09:32.127Z,7.38
2022-12-23T16:12:23.805Z,6.63
2022-12-23T16:15:00.910Z,6.32
2022-12-23T16:17:35.946Z,6.65
2022-12-23T16:20:25.305Z,7.47
2022-12-23T16:23:00.657Z,7.40
2022-12-23T16:25:31.756Z,6.97
2022-12-23T16:28:14.896Z,7.80
2022-12-23T16:30:43.528Z,8.43
2022-12-23T16:33:29.559Z,9.27
2022-12-23T16:36:26.077Z,7.68
2022-12-23T16:38:57.410Z,7.72
2022-12-23T16:41:24.695Z,7.70
2022-12-23T16:43:53.058Z,7.72
2022-12-23T16:46:23.225Z,7.28
2022-12-23T16:48:55.844Z,8.00
2022-12-23T16:51:23.971Z,7.53
2022-12-23T16:53:55.299Z,8.05
2022-12-23T16:56:27.009Z,8.45
2022-12-23T16:58:54.479Z,7.85
2022-12-23T17:01:30.466Z,8.52
2022-12-23T17:03:57.776Z,8.65
2022-12-23T17:06:25.583Z,9.30
2022-12-23T17:08:53.392Z,8.32
2022-12-23T17:11:30.917Z,10.05
2022-12-23T17:14:04.645Z,10.27
2022-12-23T17:16:33.207Z,9.90
2022-12-23T17:19:00.509Z,9.90
2022-12-23T17:21:33.659Z,8.93
2022-12-23T17:26:49.994Z,8.88
2022-12-23T17:29:17.460Z,9.85
2022-12-23T17:31:45.545Z,9.15
2022-12-23T17:34:18.513Z,8.82
2022-12-23T17:36:49.930Z,9.70
2022-12-23T17:39:19.771Z,9.70
2022-12-23T17:41:47.565Z,9.65
2022-12-23T17:44:17.070Z,8.98
2022-12-23T17:46:45.911Z,10.43
2022-12-23T17:49:13.279Z,9.73
2022-12-23T17:51:41.723Z,9.43
2022-12-23T17:54:26.253Z,9.98
2022-12-23T17:56:53.668Z,9.32
2022-12-23T17:59:21.482Z,9.50
2022-12-23T18:01:49.154Z,9.40
2022-12-23T18:04:16.463Z,9.55
2022-12-23T18:06:43.779Z,9.82
2022-12-23T18:09:11.034Z,8.50
2022-12-23T18:11:46.769Z,9.68
2022-12-23T18:14:26.872Z,9.07
2022-12-23T18:16:54.298Z,9.85
2022-12-23T18:19:21.882Z,9.80
2022-12-23T18:21:50.136Z,9.43
2022-12-23T18:24:18.022Z,8.13
2022-12-23T18:26:45.422Z,8.25
2022-12-23T18:29:12.683Z,9.23
2022-12-23T18:31:50.911Z,8.95
2022-12-23T18:34:19.608Z,8.52
2022-12-23T18:36:48.264Z,9.25
2022-12-23T18:39:15.774Z,9.15
2022-12-23T18:41:43.180Z,9.07
2022-12-23T18:44:19.917Z,8.65
2022-12-23T18:46:48.509Z,9.32
2022-12-23T18:49:16.093Z,8.65
2022-12-23T18:51:43.387Z,8.63
2022-12-23T18:54:17.051Z,9.68
2022-12-23T18:56:44.735Z,11.20
2022-12-23T18:59:29.547Z,13.23
2022-12-23T19:01:58.247Z,16.45
2022-12-23T19:04:26.856Z,16.65
2022-12-23T19:06:55.882Z,18.60
2022-12-23T19:09:24.539Z,16.63
2022-12-23T19:11:53.365Z,17.83
2022-12-23T19:14:20.742Z,18.85
2022-12-23T19:16:51.909Z,22.65
2022-12-23T19:19:20.960Z,27.17
2022-12-23T19:21:48.596Z,29.40
2022-12-23T19:24:16.060Z,29.52
2022-12-23T19:26:43.412Z,32.35
2022-12-23T19:29:10.714Z,34.45
2022-12-23T19:31:38.129Z,34.40
2022-12-23T19:34:09.720Z,38.28
2022-12-23T19:36:41.988Z,36.97
2022-12-23T19:39:16.361Z,36.05
2022-12-23T19:41:45.066Z,38.30
2022-12-23T19:44:12.389Z,39.05
2022-12-23T19:46:39.823Z,37.47
2022-12-23T19:49:07.121Z,37.08
2022-12-23T19:51:34.471Z,36.75
2022-12-23T19:54:01.966Z,36.15
2022-12-23T19:56:30.490Z,36.75
2022-12-23T19:58:58.608Z,37.88
2022-12-23T20:01:26.598Z,37.58
2022-12-23T20:03:55.871Z,35.50
2022-12-23T20:06:30.871Z,34.25
2022-12-23T20:09:03.336Z,33.72
2022-12-23T20:11:34.582Z,33.50
2022-12-23T20:14:03.077Z,32.50
2022-12-23T20:16:30.907Z,33.15
2022-12-23T20:18:58.373Z,32.17
2022-12-23T20:21:25.615Z,32.80
2022-12-23T20:23:53.224Z,31.55
2022-12-23T20:26:20.807Z,31.85
2022-12-23T20:28:48.180Z,30.17
2022-12-23T20:31:28.841Z,28.73
2022-12-23T20:33:57.198Z,28.30
2022-12-23T20:36:28.080Z,28.70
2022-12-23T20:38:56.276Z,27.80
2022-12-23T20:41:26.737Z,27.05
2022-12-23T20:44:31.469Z,26.58
2022-12-23T20:46:42.049Z,27.10
2022-12-23T20:49:09.325Z,23.35
2022-12-23T20:51:36.700Z,25.38
2022-12-23T20:54:04.041Z,23.00
2022-12-23T20:56:31.874Z,23.02
2022-12-23T20:58:59.534Z,23.17
2022-12-23T21:01:35.883Z,23.15
2022-12-23T21:04:06.035Z,23.25
2022-12-23T21:06:35.051Z,22.15
2022-12-23T21:09:05.048Z,20.65
2022-12-23T21:11:36.140Z,21.63
2022-12-23T21:14:07.207Z,21.08
2022-12-23T21:16:36.687Z,20.85
2022-12-23T21:19:06.103Z,21.30
2022-12-23T21:21:33.781Z,20.15
2022-12-23T21:24:04.523Z,20.45
2022-12-23T21:26:34.270Z,18.95
2022-12-23T21:29:05.073Z,19.33
2022-12-23T21:31:34.733Z,19.63
2022-12-23T21:34:02.990Z,18.85
2022-12-23T21:36:33.588Z,19.63
2022-12-23T21:39:01.295Z,18.58
2022-12-23T21:41:30.655Z,17.40
2022-12-23T21:43:59.417Z,17.40
2022-12-23T21:46:28.845Z,18.17
2022-12-23T21:48:57.711Z,18.30
2022-12-23T21:51:33.315Z,17.88
2022-12-23T21:54:06.132Z,15.95
2022-12-23T21:56:33.479Z,16.35
2022-12-23T21:59:10.170Z,16.95
2022-12-23T22:01:37.549Z,16.85
2022-12-23T22:04:04.977Z,16.23
2022-12-23T22:06:37.946Z,16.13
2022-12-23T22:09:06.849Z,16.02
2022-12-23T22:11:36.397Z,15.05
2022-12-23T22:14:06.382Z,15.85
2022-12-23T22:16:34.856Z,15.30
2022-12-23T22:19:02.963Z,16.20
2022-12-23T22:21:32.028Z,13.68
2022-12-23T22:24:00.411Z,14.55
2022-12-23T22:26:30.104Z,13.85
2022-12-23T22:29:00.320Z,15.15
2022-12-23T22:31:35.642Z,14.25
2022-12-23T22:34:03.339Z,13.55
2022-12-23T22:36:31.344Z,14.63
2022-12-23T22:39:00.342Z,13.80
2022-12-23T22:41:29.615Z,14.95
2022-12-23T22:43:58.116Z,13.30
2022-12-23T22:46:26.384Z,13.32
2022-12-23T22:48:54.713Z,14.75
2022-12-23T22:51:27.941Z,13.88
2022-12-23T22:53:55.763Z,14.73
2022-12-23T22:56:24.586Z,14.10
2022-12-23T22:58:52.768Z,12.98
2022-12-23T23:01:23.813Z,13.35
2022-12-23T23:03:57.178Z,14.25
2022-12-23T23:06:26.836Z,13.35
2022-12-23T23:08:55.114Z,13.63
2022-12-23T23:11:23.688Z,12.63
2022-12-23T23:13:51.611Z,12.90
2022-12-23T23:16:19.011Z,13.02
2022-12-23T23:18:46.807Z,13.68
2022-12-23T23:21:14.787Z,12.13
2022-12-23T23:23:42.031Z,12.65
2022-12-23T23:26:10.370Z,12.43
2022-12-23T23:28:39.437Z,12.05
2022-12-23T23:33:55.413Z,12.23
2022-12-23T23:36:22.749Z,12.60
2022-12-23T23:38:50.126Z,12.77
2022-12-23T23:41:22.406Z,12.40
2022-12-23T23:43:49.999Z,12.63
2022-12-23T23:46:17.343Z,12.27
2022-12-23T23:48:44.699Z,11.90
2022-12-23T23:51:12.763Z,11.88
2022-12-23T23:53:40.510Z,11.80
2022-12-23T23:56:08.689Z,12.57
2022-12-23T23:58:37.052Z,11.40
